Time;durP1;ratioP1;P1;durP2;ratioP2;P2;SDS_P1;SDS_P2;PMS_P1;PMS_P2;Temp;Humidity;BMP_temperature;BMP_pressure;BME280_temperature;BME280_humidity;BME280_pressure;Samples;Min_cycle;Max_cycle;Signal;HPM_P1;HPM_P2
2022/09/18 00:00:58;;;;;;;;;;;12.50;93.80;;;;;;5086425;28;20087;-66
2022/09/18 00:03:23;;;;;;;17.45;2.30;;;12.60;94.60;;;;;;5063588;28;20046;-65
2022/09/18 00:05:49;;;;;;;9.05;2.10;;;12.60;93.60;;;;;;5069284;28;20489;-65
2022/09/18 00:08:15;;;;;;;9.48;2.08;;;12.70;92.40;;;;;;5087414;28;20044;-65
2022/09/18 00:10:43;;;;;;;13.50;1.88;;;12.70;91.90;;;;;;5087530;28;20712;-65
2022/09/18 00:13:09;;;;;;;17.70;2.60;;;12.70;92.40;;;;;;5078400;28;20097;-66
2022/09/18 00:15:35;;;;;;;11.57;2.28;;;12.60;91.50;;;;;;5069664;28;20052;-65
2022/09/18 00:18:02;;;;;;;13.32;2.22;;;12.70;90.00;;;;;;5068379;28;20063;-65
2022/09/18 00:20:28;;;;;;;12.05;2.33;;;12.70;90.80;;;;;;5069877;28;20109;-66
2022/09/18 00:22:54;;;;;;;10.20;2.03;;;12.60;91.80;;;;;;5085442;28;20429;-66
2022/09/18 00:25:20;;;;;;;18.50;2.65;;;12.60;93.30;;;;;;5065523;28;20172;-66
2022/09/18 00:27:46;;;;;;;8.68;1.90;;;12.60;96.60;;;;;;5069507;28;20059;-66
2022/09/18 00:30:11;;;;;;;15.38;2.28;;;12.60;95.50;;;;;;5085297;28;20050;-66
2022/09/18 00:32:37;;;;;;;12.80;2.53;;;12.60;95.70;;;;;;5085762;28;20040;-66
2022/09/18 00:35:03;;;;;;;10.52;1.70;;;12.60;96.70;;;;;;5067936;28;20824;-66
2022/09/18 00:37:29;;;;;;;11.85;1.60;;;12.60;93.90;;;;;;5069796;28;20372;-65
2022/09/18 00:39:54;;;;;;;14.63;1.75;;;12.60;93.40;;;;;;5089130;28;20036;-65
2022/09/18 00:42:20;;;;;;;8.55;1.67;;;12.60;94.80;;;;;;5069300;28;20105;-65
2022/09/18 00:44:48;;;;;;;15.57;1.55;;;12.50;94.60;;;;;;5087213;28;20040;-65
2022/09/18 00:47:26;;;;;;;12.93;2.45;;;12.50;95.90;;;;;;5086347;28;20051;-66
2022/09/18 00:50:01;;;;;;;7.28;1.40;;;12.40;96.40;;;;;;5086302;28;20044;-65
2022/09/18 00:52:32;;;;;;;10.45;1.75;;;12.40;98.50;;;;;;5085812;28;20462;-65
2022/09/18 00:55:05;;;;;;;10.68;1.83;;;12.40;99.60;;;;;;5087164;28;20036;-65
2022/09/18 00:57:36;;;;;;;9.60;1.58;;;12.40;99.30;;;;;;5086851;28;20483;-65
2022/09/18 01:00:09;;;;;;;7.78;1.80;;;12.40;97.50;;;;;;5086140;28;20086;-65
2022/09/18 01:02:35;;;;;;;11.63;1.65;;;12.50;95.70;;;;;;5081608;28;20040;-66
2022/09/18 01:05:01;;;;;;;12.48;1.77;;;12.40;93.70;;;;;;5086238;28;20047;-65
2022/09/18 01:07:38;;;;;;;11.10;1.55;;;12.40;92.60;;;;;;5069071;28;20380;-65
2022/09/18 01:10:30;;;;;;;10.18;1.85;;;12.40;92.00;;;;;;5086143;28;20047;-65
2022/09/18 01:13:21;;;;;;;13.50;2.05;;;12.40;94.70;;;;;;5072167;28;20206;-65
2022/09/18 01:15:51;;;;;;;15.40;2.63;;;12.40;98.80;;;;;;5044618;28;20060;-65
2022/09/18 01:18:28;;;;;;;6.68;2.13;;;12.30;99.90;;;;;;5067527;28;20068;-65
2022/09/18 01:21:16;;;;;;;5.78;1.50;;;12.10;99.70;;;;;;5068441;28;20102;-65
2022/09/18 01:24:10;;;;;;;7.95;2.05;;;11.90;97.40;;;;;;5086845;28;20077;-65
2022/09/18 01:26:50;;;;;;;6.20;1.33;;;11.80;99.90;;;;;;5067009;28;20135;-66
2022/09/18 01:29:33;;;;;;;10.75;1.40;;;11.70;99.90;;;;;;5087021;28;20052;-65
2022/09/18 01:32:07;;;;;;;7.68;1.50;;;11.60;99.90;;;;;;5072803;28;20047;-65
2022/09/18 01:34:49;;;;;;;7.28;1.75;;;11.40;99.90;;;;;;5081627;28;20047;-65
2022/09/18 01:37:14;;;;;;;9.23;1.90;;;11.30;99.90;;;;;;5086892;28;20127;-65
2022/09/18 01:40:06;;;;;;;8.82;1.65;;;11.20;99.90;;;;;;5085028;28;20131;-65
2022/09/18 01:42:34;;;;;;;10.90;2.05;;;11.20;99.90;;;;;;5085210;28;20118;-65
2022/09/18 01:45:05;;;;;;;9.27;1.65;;;11.10;99.90;;;;;;5085937;28;20051;-65
2022/09/18 01:47:38;;;;;;;12.80;2.42;;;11.10;99.90;;;;;;5084317;28;20130;-66
2022/09/18 01:50:09;;;;;;;9.93;2.25;;;11.00;99.90;;;;;;5086615;28;20043;-65
2022/09/18 01:52:41;;;;;;;9.63;1.73;;;11.00;99.90;;;;;;5085293;28;20040;-66
2022/09/18 01:55:16;;;;;;;13.90;2.22;;;11.10;99.90;;;;;;5068125;28;20056;-66
2022/09/18 01:57:50;;;;;;;9.65;1.75;;;11.10;99.90;;;;;;5085144;28;20379;-65
2022/09/18 02:00:16;;;;;;;11.43;1.92;;;11.00;99.90;;;;;;5086145;28;20040;-66
2022/09/18 02:02:54;;;;;;;11.27;2.30;;;11.00;99.90;;;;;;5085945;28;20490;-65
2022/09/18 02:05:28;;;;;;;15.75;2.08;;;11.00;99.90;;;;;;5083821;28;21986;-65
2022/09/18 02:08:19;;;;;;;13.75;2.30;;;11.00;99.90;;;;;;5086133;28;20063;-65
2022/09/18 02:10:59;;;;;;;11.23;2.92;;;11.10;99.90;;;;;;5085088;28;20051;-66
2022/09/18 02:13:33;;;;;;;;;;;11.10;99.90;;;;;;5086357;28;20040;-65
2022/09/18 02:16:06;;;;;;;11.65;2.15;;;11.20;99.90;;;;;;5066469;28;19927;-65
2022/09/18 02:18:39;;;;;;;10.02;2.10;;;11.30;99.90;;;;;;5067207;28;20389;-65
2022/09/18 02:21:14;;;;;;;12.93;2.15;;;11.30;99.90;;;;;;5084783;28;20084;-65
2022/09/18 02:23:41;;;;;;;11.48;1.60;;;11.40;99.90;;;;;;5085186;28;20118;-66
2022/09/18 02:26:08;;;;;;;8.60;2.05;;;11.30;99.90;;;;;;5073045;28;20190;-66
2022/09/18 02:28:36;;;;;;;12.38;1.67;;;11.30;99.90;;;;;;5089709;28;20061;-65
2022/09/18 02:31:02;;;;;;;8.52;1.42;;;11.30;99.90;;;;;;5088663;28;20055;-65
2022/09/18 02:33:33;;;;;;;12.52;2.03;;;11.20;99.90;;;;;;5071905;28;20055;-66
2022/09/18 02:36:28;;;;;;;9.57;1.63;;;11.20;99.90;;;;;;5068878;28;20040;-66
2022/09/18 02:39:13;;;;;;;10.70;1.83;;;11.20;99.90;;;;;;5058223;28;20397;-65
2022/09/18 02:41:57;;;;;;;15.32;2.13;;;11.10;99.90;;;;;;5071983;28;20087;-65
2022/09/18 02:44:32;;;;;;;12.02;1.77;;;11.10;99.90;;;;;;5088628;28;20047;-65
2022/09/18 02:47:20;;;;;;;12.00;2.03;;;11.10;99.90;;;;;;5069158;28;20052;-65
2022/09/18 02:50:00;;;;;;;18.20;2.55;;;11.10;99.90;;;;;;5053283;28;20542;-65
2022/09/18 02:52:40;;;;;;;9.95;1.90;;;11.10;99.90;;;;;;5089170;28;20048;-66
2022/09/18 02:55:20;;;;;;;13.82;1.90;;;11.20;99.90;;;;;;5071381;28;20052;-65
2022/09/18 02:58:08;;;;;;;12.75;1.75;;;11.20;99.90;;;;;;5086480;28;20052;-66
2022/09/18 03:00:34;;;;;;;8.63;1.75;;;11.20;99.90;;;;;;5045208;28;20469;-65
2022/09/18 03:03:00;;;;;;;10.23;1.67;;;11.20;99.90;;;;;;5088764;28;20127;-66
2022/09/18 03:05:26;;;;;;;11.23;1.65;;;11.20;99.90;;;;;;5089055;28;20572;-66
2022/09/18 03:07:52;;;;;;;17.50;2.10;;;11.20;99.90;;;;;;5068581;28;20267;-65
2022/09/18 03:10:18;;;;;;;12.70;2.03;;;11.20;99.90;;;;;;5069857;28;20075;-65
2022/09/18 03:12:44;;;;;;;8.88;1.55;;;11.30;99.90;;;;;;5089159;28;20060;-65
2022/09/18 03:15:10;;;;;;;7.60;1.55;;;11.20;99.90;;;;;;5069564;28;20047;-66
2022/09/18 03:17:36;;;;;;;7.93;1.88;;;11.20;99.90;;;;;;5087336;28;20089;-65
2022/09/18 03:20:04;;;;;;;8.48;1.70;;;11.20;99.90;;;;;;5070024;28;20094;-65
2022/09/18 03:22:29;;;;;;;12.85;2.00;;;11.30;99.90;;;;;;5088422;28;20048;-65
2022/09/18 03:24:55;;;;;;;9.43;2.03;;;11.30;99.90;;;;;;5087140;28;20036;-65
2022/09/18 03:27:21;;;;;;;13.30;2.13;;;11.30;99.90;;;;;;5069935;28;20086;-66
2022/09/18 03:29:46;;;;;;;13.23;1.70;;;11.30;99.90;;;;;;5088108;28;20397;-65
2022/09/18 03:32:12;;;;;;;19.10;2.25;;;11.40;99.90;;;;;;5069130;28;20056;-65
2022/09/18 03:34:38;;;;;;;11.75;1.77;;;11.40;99.90;;;;;;5054105;28;20044;-65
2022/09/18 03:37:04;;;;;;;8.48;1.80;;;11.30;99.90;;;;;;5086884;28;20075;-65
2022/09/18 03:39:29;;;;;;;9.10;1.95;;;11.30;99.90;;;;;;5086723;28;20076;-65
2022/09/18 03:41:55;;;;;;;10.55;2.20;;;11.30;99.90;;;;;;5088519;28;20109;-65
2022/09/18 03:44:21;;;;;;;13.68;2.00;;;11.40;99.90;;;;;;5087943;28;20089;-65
2022/09/18 03:46:47;;;;;;;11.35;1.92;;;11.40;99.90;;;;;;5070668;28;20051;-65
2022/09/18 03:49:13;;;;;;;9.50;2.08;;;11.40;99.90;;;;;;5062455;28;20127;-66
2022/09/18 03:51:38;;;;;;;11.63;2.20;;;11.40;99.90;;;;;;5066820;28;20170;-65
2022/09/18 03:54:05;;;;;;;9.80;2.30;;;11.40;99.90;;;;;;5086741;28;20047;-66
2022/09/18 03:56:31;;;;;;;13.38;2.35;;;11.40;99.90;;;;;;5088829;28;20401;-65
2022/09/18 03:58:56;;;;;;;14.85;1.38;;;11.40;99.90;;;;;;5068034;28;20043;-66
2022/09/18 04:01:22;;;;;;;18.83;2.83;;;11.30;99.90;;;;;;5087307;28;20110;-65
2022/09/18 04:03:48;;;;;;;18.95;2.08;;;11.20;99.90;;;;;;5088495;28;20040;-65
2022/09/18 04:06:15;;;;;;;14.93;1.73;;;11.20;99.90;;;;;;5086833;28;20035;-65
2022/09/18 04:08:40;;;;;;;14.30;2.25;;;11.10;99.90;;;;;;5087875;28;20130;-66
2022/09/18 04:11:06;;;;;;;15.60;1.92;;;11.10;99.90;;;;;;5067588;28;20143;-66
2022/09/18 04:13:33;;;;;;;14.13;1.75;;;11.00;99.90;;;;;;5070093;28;20048;-65
2022/09/18 04:15:59;;;;;;;10.50;1.92;;;11.00;99.90;;;;;;5086467;28;20058;-66
2022/09/18 04:18:24;;;;;;;12.85;1.67;;;11.00;99.90;;;;;;5088437;28;20039;-66
2022/09/18 04:20:50;;;;;;;11.73;1.73;;;10.90;99.90;;;;;;5067778;28;20054;-65
2022/09/18 04:23:17;;;;;;;6.85;1.52;;;10.90;99.90;;;;;;5068670;28;20525;-65
2022/09/18 04:25:43;;;;;;;10.35;1.88;;;10.90;99.90;;;;;;5067747;28;20055;-66
2022/09/18 04:28:12;;;;;;;17.63;2.70;;;10.90;99.90;;;;;;5084600;28;20048;-65
2022/09/18 04:30:37;;;;;;;12.02;2.22;;;10.90;99.90;;;;;;5087538;28;20066;-66
2022/09/18 04:33:03;;;;;;;11.43;1.90;;;10.90;99.90;;;;;;5050435;28;20050;-66
2022/09/18 04:35:30;;;;;;;18.70;2.60;;;10.90;99.90;;;;;;5052909;28;20480;-67
2022/09/18 04:37:55;;;;;;;10.68;1.67;;;11.00;99.90;;;;;;5085208;28;20055;-67
2022/09/18 04:40:21;;;;;;;16.05;2.20;;;11.00;99.90;;;;;;5068917;28;20059;-68
2022/09/18 04:42:47;;;;;;;14.20;2.33;;;11.10;99.90;;;;;;5067658;28;20044;-68
2022/09/18 04:45:13;;;;;;;11.38;1.50;;;11.10;99.90;;;;;;5086145;28;20047;-67
2022/09/18 04:47:40;;;;;;;12.55;1.52;;;11.10;99.90;;;;;;5085567;28;20440;-67
2022/09/18 04:50:07;;;;;;;10.77;1.65;;;11.20;99.90;;;;;;5085630;28;20052;-68
2022/09/18 04:52:34;;;;;;;8.48;1.77;;;11.20;99.90;;;;;;5067918;28;20044;-67
2022/09/18 04:55:00;;;;;;;8.95;1.65;;;11.30;99.90;;;;;;5067362;28;20529;-67
2022/09/18 04:57:26;;;;;;;9.68;1.92;;;11.30;99.90;;;;;;5087408;28;20079;-67
2022/09/18 04:59:52;;;;;;;12.70;1.98;;;11.30;99.90;;;;;;5087318;28;20047;-67
2022/09/18 05:02:18;;;;;;;10.68;1.83;;;11.40;99.90;;;;;;5067616;28;20043;-67
2022/09/18 05:04:44;;;;;;;11.40;1.38;;;11.40;99.90;;;;;;5067318;28;20079;-67
2022/09/18 05:07:09;;;;;;;10.45;2.03;;;11.50;99.90;;;;;;5065254;28;20080;-67
2022/09/18 05:09:41;;;;;;;14.73;2.53;;;11.50;99.90;;;;;;5087014;28;20140;-67
2022/09/18 05:12:08;;;;;;;11.35;2.20;;;11.50;99.90;;;;;;5067314;28;20437;-67
2022/09/18 05:14:34;;;;;;;9.95;1.65;;;11.50;99.90;;;;;;5086839;28;20115;-66
2022/09/18 05:17:00;;;;;;;5.63;1.30;;;11.50;99.90;;;;;;5061874;28;20127;-67
2022/09/18 05:19:27;;;;;;;7.50;1.35;;;11.50;99.90;;;;;;5068378;28;20181;-66
2022/09/18 05:21:52;;;;;;;10.35;1.40;;;11.50;99.90;;;;;;5085888;28;20131;-67
2022/09/18 05:24:18;;;;;;;6.90;1.38;;;11.50;99.90;;;;;;5085306;28;20150;-67
2022/09/18 05:26:44;;;;;;;5.38;1.02;;;11.50;99.90;;;;;;5050462;28;20059;-66
2022/09/18 05:29:10;;;;;;;5.93;1.15;;;11.50;99.90;;;;;;5066133;28;20132;-67
2022/09/18 05:31:36;;;;;;;6.63;1.20;;;11.50;99.90;;;;;;5068465;28;20123;-66
2022/09/18 05:34:02;;;;;;;5.93;1.40;;;11.50;99.90;;;;;;5067064;28;20093;-67
2022/09/18 05:36:27;;;;;;;7.40;0.70;;;11.50;99.90;;;;;;5086338;28;20071;-66
2022/09/18 05:38:53;;;;;;;5.78;1.05;;;11.40;99.90;;;;;;5065693;28;20477;-68
2022/09/18 05:41:20;;;;;;;11.35;1.20;;;11.40;99.90;;;;;;5084682;28;20132;-67
2022/09/18 05:43:46;;;;;;;8.90;1.23;;;11.30;99.90;;;;;;5080980;28;20500;-68
2022/09/18 05:46:13;;;;;;;10.10;1.70;;;11.30;99.90;;;;;;5062634;28;20043;-68
2022/09/18 05:48:39;;;;;;;9.00;1.70;;;11.20;99.90;;;;;;5086763;28;20059;-67
2022/09/18 05:51:05;;;;;;;8.40;1.33;;;11.20;99.90;;;;;;5062434;28;20048;-67
2022/09/18 05:53:30;;;;;;;5.63;1.02;;;11.20;99.90;;;;;;5068368;28;20483;-68
2022/09/18 05:55:58;;;;;;;6.63;1.02;;;11.10;99.90;;;;;;5067747;28;20079;-67
2022/09/18 05:58:24;;;;;;;9.30;1.60;;;11.10;99.90;;;;;;5067056;28;20047;-68
2022/09/18 06:00:51;;;;;;;7.93;1.33;;;11.00;99.90;;;;;;5090057;28;20040;-67
2022/09/18 06:03:17;;;;;;;10.15;1.83;;;11.00;99.90;;;;;;5068039;28;20080;-68
2022/09/18 06:05:50;;;;;;;8.38;1.40;;;11.00;99.90;;;;;;5062370;28;20052;-67
2022/09/18 06:08:16;;;;;;;11.43;1.40;;;11.00;99.90;;;;;;5068695;28;20070;-67
2022/09/18 06:10:42;;;;;;;6.88;1.20;;;11.00;99.90;;;;;;5071188;28;20044;-67
2022/09/18 06:13:11;;;;;;;6.60;1.50;;;11.10;99.90;;;;;;5067535;28;20048;-68
2022/09/18 06:15:38;;;;;;;5.13;1.20;;;11.10;99.90;;;;;;5062699;28;20106;-67
2022/09/18 06:18:05;;;;;;;7.88;1.08;;;11.00;99.90;;;;;;5069753;28;20072;-67
2022/09/18 06:20:31;;;;;;;11.25;1.65;;;11.10;99.90;;;;;;5089466;28;20095;-67
2022/09/18 06:23:01;;;;;;;9.82;1.50;;;11.10;99.90;;;;;;5068342;28;20457;-67
2022/09/18 06:25:27;;;;;;;11.27;1.40;;;11.10;99.90;;;;;;5079579;28;20048;-67
2022/09/18 06:27:58;;;;;;;7.90;1.70;;;11.10;99.90;;;;;;5086201;28;20056;-67
2022/09/18 06:30:27;;;;;;;;;;;11.20;99.90;;;;;;5065642;28;20066;-67
2022/09/18 06:32:53;;;;;;;8.80;1.60;;;11.10;99.90;;;;;;5089458;28;20011;-67
2022/09/18 06:35:19;;;;;;;5.30;1.50;;;11.10;99.90;;;;;;5055177;28;20309;-68
2022/09/18 06:37:45;;;;;;;12.30;1.63;;;11.20;99.90;;;;;;5070381;28;20062;-68
2022/09/18 06:40:11;;;;;;;11.05;1.92;;;11.20;99.90;;;;;;5071608;28;20055;-67
2022/09/18 06:42:36;;;;;;;8.90;1.63;;;11.20;99.90;;;;;;5087120;28;20679;-68
2022/09/18 06:45:02;;;;;;;13.10;1.60;;;11.20;99.90;;;;;;5089916;28;20084;-68
2022/09/18 06:47:28;;;;;;;7.20;1.60;;;11.20;99.90;;;;;;5070307;28;20493;-67
2022/09/18 06:49:54;;;;;;;9.02;1.75;;;11.20;99.90;;;;;;5071227;28;20091;-68
2022/09/18 06:52:20;;;;;;;9.07;1.75;;;11.20;99.90;;;;;;5054512;28;20046;-68
2022/09/18 06:54:45;;;;;;;13.45;1.98;;;11.10;99.90;;;;;;5068982;28;20626;-68
2022/09/18 06:57:11;;;;;;;10.10;1.48;;;11.20;99.90;;;;;;5048297;28;20036;-67
2022/09/18 06:59:37;;;;;;;11.05;1.48;;;11.20;99.90;;;;;;5088512;28;20615;-68
2022/09/18 07:02:04;;;;;;;6.97;1.65;;;11.20;99.90;;;;;;5071255;28;20066;-68
2022/09/18 07:04:29;;;;;;;10.32;1.55;;;11.20;99.90;;;;;;5068592;28;20040;-68
2022/09/18 07:06:55;;;;;;;12.70;2.38;;;11.20;99.90;;;;;;5071113;28;20051;-68
2022/09/18 07:09:21;;;;;;;15.02;2.15;;;11.20;99.90;;;;;;5088183;28;20044;-66
2022/09/18 07:11:46;;;;;;;9.27;2.25;;;11.30;99.90;;;;;;5088244;28;20055;-67
2022/09/18 07:14:12;;;;;;;10.55;1.77;;;11.30;99.90;;;;;;5068804;28;20521;-67
2022/09/18 07:16:38;;;;;;;10.75;2.13;;;11.30;99.90;;;;;;5070008;28;20051;-67
2022/09/18 07:19:03;;;;;;;10.10;1.70;;;11.40;99.90;;;;;;5046258;28;20048;-67
2022/09/18 07:21:29;;;;;;;6.25;1.77;;;11.40;99.90;;;;;;5087585;28;20047;-67
2022/09/18 07:23:55;;;;;;;6.68;1.67;;;11.30;99.90;;;;;;5065803;28;20051;-68
2022/09/18 07:26:21;;;;;;;8.68;1.27;;;11.30;99.90;;;;;;5087486;28;20043;-68
2022/09/18 07:28:47;;;;;;;7.82;2.08;;;11.40;99.90;;;;;;5070439;28;20087;-67
2022/09/18 07:31:12;;;;;;;16.38;2.50;;;11.30;99.90;;;;;;5088579;28;20821;-67
2022/09/18 07:33:39;;;;;;;7.75;1.55;;;11.40;99.90;;;;;;5086196;28;20063;-68
2022/09/18 07:36:05;;;;;;;11.23;1.70;;;11.30;99.90;;;;;;5071252;28;20101;-68
2022/09/18 07:38:33;;;;;;;15.07;2.58;;;11.20;99.90;;;;;;5047607;28;20044;-68
2022/09/18 07:41:02;;;;;;;13.35;2.17;;;11.10;99.90;;;;;;5087959;28;20036;-70
2022/09/18 07:43:28;;;;;;;25.38;2.90;;;10.90;99.90;;;;;;5067066;28;20123;-69
2022/09/18 07:45:54;;;;;;;24.60;3.15;;;10.80;99.90;;;;;;5058424;28;20700;-71
2022/09/18 07:48:19;;;;;;;21.45;2.30;;;10.80;99.90;;;;;;5063221;28;20059;-70
2022/09/18 07:50:45;;;;;;;16.88;2.30;;;10.80;99.90;;;;;;5067753;28;20083;-69
2022/09/18 07:53:11;;;;;;;19.92;3.75;;;10.80;99.90;;;;;;5050153;28;20044;-70
2022/09/18 07:55:37;;;;;;;14.93;2.47;;;10.90;99.90;;;;;;5067009;28;20101;-70
2022/09/18 07:58:05;;;;;;;10.82;1.90;;;10.90;99.90;;;;;;5045207;28;20574;-70
2022/09/18 08:00:34;;;;;;;13.07;1.70;;;11.00;99.90;;;;;;5065491;28;20043;-69
2022/09/18 08:03:04;;;;;;;6.15;1.45;;;11.00;99.90;;;;;;5066944;28;20428;-70
2022/09/18 08:05:30;;;;;;;9.55;1.50;;;10.90;99.90;;;;;;5056168;28;20528;-70
2022/09/18 08:08:02;;;;;;;12.30;1.77;;;10.90;99.90;;;;;;5066813;28;20112;-70
2022/09/18 08:10:27;;;;;;;10.25;2.05;;;11.00;99.90;;;;;;5067025;28;20483;-70
2022/09/18 08:12:53;;;;;;;10.88;1.90;;;11.00;99.90;;;;;;5064865;28;20044;-71
2022/09/18 08:15:19;;;;;;;12.68;2.85;;;11.00;99.90;;;;;;5066677;28;20043;-71
2022/09/18 08:17:45;;;;;;;12.65;1.88;;;11.10;99.90;;;;;;5048878;28;20524;-71
2022/09/18 08:20:12;;;;;;;14.48;2.33;;;11.10;99.90;;;;;;5067313;28;20036;-71
2022/09/18 08:22:41;;;;;;;10.20;2.50;;;11.10;99.90;;;;;;5037303;28;20071;-71
2022/09/18 08:25:09;;;;;;;11.93;2.07;;;11.10;99.90;;;;;;5064633;28;20048;-71
2022/09/18 08:27:40;;;;;;;9.13;2.03;;;11.20;99.90;;;;;;5049289;28;20600;-70
2022/09/18 08:30:08;;;;;;;15.93;2.92;;;11.20;99.90;;;;;;5065233;28;20041;-70
2022/09/18 08:32:34;;;;;;;4.85;1.35;;;11.30;99.90;;;;;;5074955;28;20128;-70
2022/09/18 08:35:00;;;;;;;10.57;1.70;;;11.30;99.90;;;;;;5043982;28;20047;-71
2022/09/18 08:37:27;;;;;;;8.73;1.17;;;11.30;99.90;;;;;;5062621;28;20036;-71
2022/09/18 08:39:52;;;;;;;8.80;2.15;;;11.40;99.90;;;;;;5065622;28;20078;-70
2022/09/18 08:42:41;;;;;;;9.90;1.42;;;11.40;99.90;;;;;;5066406;28;20048;-71
2022/09/18 08:45:16;;;;;;;9.52;1.60;;;11.40;99.90;;;;;;5058990;28;20048;-71
2022/09/18 08:47:57;;;;;;;7.40;1.40;;;11.40;99.90;;;;;;5059491;28;20056;-71
2022/09/18 08:50:31;;;;;;;8.07;1.20;;;11.40;99.90;;;;;;5067651;28;20086;-71
2022/09/18 08:53:10;;;;;;;11.48;1.30;;;11.50;99.90;;;;;;5066835;28;20054;-70
2022/09/18 08:55:40;;;;;;;10.18;1.40;;;11.40;99.90;;;;;;5059702;28;20055;-71
2022/09/18 08:58:29;;;;;;;6.90;1.50;;;11.40;99.90;;;;;;5067906;28;20116;-72
2022/09/18 09:01:14;;;;;;;10.68;1.73;;;11.50;99.90;;;;;;5085781;28;20050;-72
2022/09/18 09:03:51;;;;;;;5.53;1.23;;;11.50;99.90;;;;;;5068301;28;20036;-70
2022/09/18 09:06:59;;;;;;;7.10;0.98;;;11.60;99.90;;;;;;5066599;28;20040;-70
2022/09/18 09:10:02;;;;;;;6.45;1.20;;;11.60;99.90;;;;;;5034555;28;20199;-71
2022/09/18 09:12:37;;;;;;;6.97;1.38;;;11.60;99.90;;;;;;5055533;28;20498;-70
2022/09/18 09:15:16;;;;;;;4.00;1.10;;;11.60;99.90;;;;;;5068300;28;20494;-70
2022/09/18 09:17:45;;;;;;;8.45;1.40;;;11.60;99.90;;;;;;5066191;28;20131;-70
2022/09/18 09:20:29;;;;;;;8.43;1.40;;;11.60;99.90;;;;;;5068867;28;20043;-70
2022/09/18 09:23:04;;;;;;;11.43;1.45;;;11.60;99.90;;;;;;5067466;28;20538;-71
2022/09/18 09:25:30;;;;;;;6.88;1.00;;;11.60;99.90;;;;;;5068267;28;20040;-71
2022/09/18 09:28:02;;;;;;;3.88;1.00;;;11.70;99.90;;;;;;5053638;28;20071;-70
2022/09/18 09:30:32;;;;;;;5.35;1.90;;;11.70;99.90;;;;;;5066760;28;20573;-70
2022/09/18 09:33:38;;;;;;;9.88;1.85;;;11.80;99.90;;;;;;5068547;28;20122;-70
2022/09/18 09:36:15;;;;;;;4.22;1.05;;;11.80;99.90;;;;;;5065670;28;20060;-70
2022/09/18 09:38:48;;;;;;;5.65;1.10;;;11.90;99.90;;;;;;5053363;28;20047;-70
2022/09/18 09:41:32;;;;;;;7.68;1.63;;;12.00;99.90;;;;;;5066335;28;20048;-69
2022/09/18 09:44:27;;;;;;;8.48;1.52;;;12.00;99.90;;;;;;5067025;28;20069;-69
2022/09/18 09:47:20;;;;;;;5.93;1.15;;;12.10;99.90;;;;;;5067681;28;20109;-69
2022/09/18 09:50:01;;;;;;;12.35;1.25;;;12.10;99.90;;;;;;5067971;28;20105;-68
2022/09/18 09:52:28;;;;;;;9.23;1.27;;;12.20;99.90;;;;;;5057658;28;20114;-69
2022/09/18 09:55:13;;;;;;;8.23;1.70;;;12.30;99.90;;;;;;5068384;28;20051;-69
2022/09/18 09:58:04;;;;;;;9.05;1.48;;;12.30;99.90;;;;;;5083065;28;20136;-69
2022/09/18 10:00:37;;;;;;;10.20;1.85;;;12.40;99.90;;;;;;5066206;28;20770;-69
2022/09/18 10:03:32;;;;;;;10.43;2.33;;;12.50;99.90;;;;;;5072835;28;20909;-69
2022/09/18 10:06:25;;;;;;;8.50;2.30;;;12.70;99.90;;;;;;5063012;28;20093;-68
2022/09/18 10:09:02;;;;;;;11.48;1.73;;;12.80;99.90;;;;;;5058953;28;20569;-69
2022/09/18 10:11:29;;;;;;;4.97;1.42;;;12.90;99.90;;;;;;5065382;28;20127;-67
2022/09/18 10:14:17;;;;;;;5.45;1.20;;;12.90;99.90;;;;;;5077961;28;20051;-68
2022/09/18 10:16:47;;;;;;;10.00;1.88;;;13.00;99.90;;;;;;5050368;28;20040;-67
2022/09/18 10:19:18;;;;;;;7.20;1.58;;;13.10;99.90;;;;;;5065614;28;20052;-67
2022/09/18 10:21:45;;;;;;;12.98;2.50;;;13.20;96.00;;;;;;5084617;28;20047;-67
2022/09/18 10:24:37;;;;;;;12.30;1.45;;;13.20;96.20;;;;;;5079605;28;20162;-67
2022/09/18 10:27:14;;;;;;;9.05;1.40;;;13.30;93.40;;;;;;5047604;28;20412;-66
2022/09/18 10:29:40;;;;;;;5.47;1.25;;;13.50;90.70;;;;;;5067782;28;20063;-66
2022/09/18 10:32:09;;;;;;;6.45;1.75;;;13.70;91.80;;;;;;5066670;28;20394;-66
2022/09/18 10:34:44;;;;;;;10.93;2.33;;;13.90;79.50;;;;;;5083773;28;20051;-66
2022/09/18 10:37:14;;;;;;;12.60;1.88;;;14.10;91.10;;;;;;5067375;28;20092;-67
2022/09/18 10:39:49;;;;;;;10.80;1.80;;;14.20;90.40;;;;;;5066014;28;20040;-66
2022/09/18 10:42:18;;;;;;;10.95;1.58;;;14.20;81.90;;;;;;5067501;28;20066;-66
2022/09/18 10:44:57;;;;;;;11.18;1.88;;;14.30;75.90;;;;;;5081804;28;20048;-65
2022/09/18 10:47:29;;;;;;;9.88;1.70;;;14.50;87.30;;;;;;5087336;28;20052;-65
2022/09/18 10:50:14;;;;;;;17.95;2.53;;;14.70;93.10;;;;;;5069952;28;20106;-65
2022/09/18 10:52:45;;;;;;;8.20;1.52;;;14.70;81.40;;;;;;5087988;28;20394;-65
2022/09/18 10:55:14;;;;;;;9.45;2.25;;;14.70;80.60;;;;;;5080036;28;20083;-65
2022/09/18 10:58:01;;;;;;;10.32;1.85;;;14.70;75.20;;;;;;5053105;28;20059;-65
2022/09/18 11:00:28;;;;;;;13.38;1.58;;;14.70;81.90;;;;;;5071187;28;20123;-65
2022/09/18 11:03:27;;;;;;;11.13;1.67;;;14.70;89.30;;;;;;5070379;28;20067;-65
2022/09/18 11:05:57;;;;;;;10.65;2.22;;;14.80;85.20;;;;;;5051237;28;20062;-65
2022/09/18 11:08:24;;;;;;;;;;;14.90;77.10;;;;;;5089511;28;20138;-65
2022/09/18 11:10:57;;;;;;;11.10;1.73;;;15.00;69.00;;;;;;5084904;28;20768;-65
2022/09/18 11:13:25;;;;;;;7.53;1.73;;;15.10;63.80;;;;;;5090167;28;20158;-65
2022/09/18 11:15:57;;;;;;;13.38;1.83;;;15.00;63.90;;;;;;5068108;28;20233;-65
2022/09/18 11:18:28;;;;;;;7.38;1.75;;;14.90;60.80;;;;;;5067923;28;20177;-66
2022/09/18 11:20:56;;;;;;;10.20;1.35;;;14.90;67.00;;;;;;5088079;28;20105;-65
2022/09/18 11:23:22;;;;;;;8.68;1.88;;;14.80;64.30;;;;;;5087752;28;20052;-65
2022/09/18 11:25:47;;;;;;;10.68;2.03;;;14.70;51.40;;;;;;5087221;28;20047;-65
2022/09/18 11:28:27;;;;;;;10.68;1.60;;;14.70;65.60;;;;;;5068250;28;20099;-65
2022/09/18 11:31:00;;;;;;;12.40;1.60;;;14.70;80.00;;;;;;5075186;28;20409;-65
2022/09/18 11:33:47;;;;;;;10.25;1.63;;;14.70;71.10;;;;;;5067692;28;20047;-65
2022/09/18 11:36:15;;;;;;;12.32;2.38;;;14.70;75.50;;;;;;5068644;28;20417;-66
2022/09/18 11:38:44;;;;;;;16.08;2.00;;;14.70;84.90;;;;;;5070060;28;20044;-66
2022/09/18 11:41:12;;;;;;;8.80;1.88;;;14.60;82.00;;;;;;5052453;28;20048;-65
2022/09/18 11:43:42;;;;;;;10.00;1.73;;;14.50;76.10;;;;;;5088142;28;20104;-65
2022/09/18 11:46:31;;;;;;;16.42;2.78;;;14.70;74.50;;;;;;5083688;28;20116;-66
2022/09/18 11:49:02;;;;;;;11.30;1.80;;;14.90;61.60;;;;;;5068346;28;20036;-65
2022/09/18 11:52:00;;;;;;;9.30;1.63;;;15.20;60.00;;;;;;5087797;28;20054;-66
2022/09/18 11:54:50;;;;;;;7.68;1.65;;;15.50;63.00;;;;;;5068168;28;20066;-66
2022/09/18 11:57:25;;;;;;;12.75;1.75;;;15.50;53.80;;;;;;5063464;28;20102;-66
2022/09/18 11:59:57;;;;;;;10.98;2.03;;;15.50;53.30;;;;;;5069305;28;20040;-66
2022/09/18 12:02:31;;;;;;;6.50;1.42;;;15.60;57.50;;;;;;5069443;28;20052;-66
2022/09/18 12:05:24;;;;;;;8.07;2.13;;;15.70;67.90;;;;;;5087852;28;20040;-66
2022/09/18 12:08:17;;;;;;;12.20;2.33;;;15.60;63.40;;;;;;5063079;28;20106;-66
2022/09/18 12:11:01;;;;;;;11.63;2.08;;;15.70;69.00;;;;;;5086649;28;20423;-66
2022/09/18 12:13:33;;;;;;;13.32;2.38;;;15.70;65.30;;;;;;5084703;28;20386;-66
2022/09/18 12:16:19;;;;;;;19.58;1.90;;;15.50;63.40;;;;;;5086615;28;20036;-66
2022/09/18 12:19:19;;;;;;;12.75;1.98;;;15.60;73.10;;;;;;5051294;28;20398;-66
2022/09/18 12:22:04;;;;;;;7.10;1.52;;;15.90;73.00;;;;;;5077755;28;20130;-66
2022/09/18 12:24:30;;;;;;;11.65;1.85;;;16.00;37.20;;;;;;5086596;28;20048;-66
2022/09/18 12:27:37;;;;;;;6.85;1.77;;;16.00;42.20;;;;;;5065738;28;20582;-66
2022/09/18 12:30:12;;;;;;;8.43;1.65;;;16.10;61.60;;;;;;5015570;28;20076;-66
2022/09/18 12:33:02;;;;;;;8.20;2.10;;;16.20;54.30;;;;;;5046312;28;20052;-66
2022/09/18 12:36:12;;;;;;;16.90;2.72;;;15.80;47.40;;;;;;5054991;28;20052;-66
2022/09/18 12:38:45;;;;;;;8.07;2.05;;;15.50;45.00;;;;;;4994618;28;20077;-66
2022/09/18 12:41:23;;;;;;;8.80;1.50;;;15.50;53.50;;;;;;5052831;28;20438;-66
2022/09/18 12:44:07;;;;;;;11.20;1.90;;;15.70;56.10;;;;;;5067408;28;20040;-66
2022/09/18 12:47:02;;;;;;;7.20;1.75;;;15.80;35.60;;;;;;5066232;28;20063;-66
2022/09/18 12:49:36;;;;;;;15.13;2.53;;;15.80;57.10;;;;;;5057185;28;20052;-66
2022/09/18 12:52:13;;;;;;;11.30;2.38;;;15.30;59.20;;;;;;5067180;28;20264;-66
2022/09/18 12:55:16;;;;;;;12.10;3.05;;;14.80;60.70;;;;;;5065945;28;20101;-67
2022/09/18 12:58:30;;;;;;;7.55;2.08;;;14.70;71.00;;;;;;5045124;28;20067;-66
2022/09/18 13:01:00;;;;;;;9.35;1.88;;;15.20;67.20;;;;;;5046915;28;20131;-67
2022/09/18 13:03:34;;;;;;;18.42;2.67;;;15.50;68.20;;;;;;5063605;28;20479;-66
2022/09/18 13:06:07;;;;;;;9.20;2.20;;;15.60;55.90;;;;;;5063967;28;20170;-66
2022/09/18 13:08:45;;;;;;;10.63;1.88;;;15.40;50.10;;;;;;5057721;28;20632;-66